Time;durP1;ratioP1;P1;durP2;ratioP2;P2;SDS_P1;SDS_P2;PMS_P1;PMS_P2;Temp;Humidity;BMP_temperature;BMP_pressure;BME280_temperature;BME280_humidity;BME280_pressure;Samples;Min_cycle;Max_cycle;Signal;HPM_P1;HPM_P2
2022/09/16 00:00:21;;;;;;;6.22;1.67;;;537.80;2406.40;;;;;;5136195;27;20038;-74
2022/09/16 00:02:47;;;;;;;3.55;1.27;;;537.80;2406.40;;;;;;5133312;27;20023;-74
2022/09/16 00:05:13;;;;;;;4.78;1.40;;;537.80;2406.40;;;;;;5132841;27;20030;-74
2022/09/16 00:07:39;;;;;;;4.93;1.65;;;538.00;2406.40;;;;;;5139037;27;20043;-74
2022/09/16 00:10:05;;;;;;;4.22;1.63;;;537.90;2406.40;;;;;;5138394;27;20140;-74
2022/09/16 00:12:31;;;;;;;6.28;1.67;;;538.00;2406.40;;;;;;5136111;27;20023;-74
2022/09/16 00:14:57;;;;;;;5.88;2.17;;;538.00;2406.40;;;;;;5133138;27;20023;-74
2022/09/16 00:17:23;;;;;;;5.05;1.80;;;538.00;2406.40;;;;;;5136057;27;20491;-74
2022/09/16 00:19:49;;;;;;;4.38;1.33;;;538.00;2406.40;;;;;;5117081;27;20023;-74
2022/09/16 00:22:16;;;;;;;3.30;1.63;;;538.00;2406.40;;;;;;5116286;27;20031;-75
2022/09/16 00:24:42;;;;;;;7.18;2.05;;;538.00;2406.40;;;;;;5138614;27;20091;-75
2022/09/16 00:27:08;;;;;;;8.02;1.50;;;538.00;2406.40;;;;;;5133064;27;20493;-74
2022/09/16 00:29:34;;;;;;;4.45;1.23;;;538.00;2406.40;;;;;;5148499;27;20114;-74
2022/09/16 00:32:00;;;;;;;7.78;1.60;;;538.00;2406.40;;;;;;5135625;27;20094;-74
2022/09/16 00:34:25;;;;;;;3.42;1.50;;;538.00;2406.40;;;;;;5135668;27;20019;-74
2022/09/16 00:36:51;;;;;;;4.53;1.48;;;538.00;2406.40;;;;;;5132551;27;20030;-75
2022/09/16 00:39:17;;;;;;;6.35;1.63;;;537.90;2406.40;;;;;;5132761;27;20024;-74
2022/09/16 00:41:43;;;;;;;5.25;1.45;;;538.00;2406.40;;;;;;5132489;27;20361;-75
2022/09/16 00:44:46;;;;;;;3.15;1.50;;;538.00;2406.40;;;;;;5132667;27;20015;-74
2022/09/16 00:47:14;;;;;;;7.95;1.73;;;537.90;2406.40;;;;;;5135419;27;20098;-74
2022/09/16 00:49:41;;;;;;;3.65;1.52;;;538.00;2406.40;;;;;;5135228;27;20026;-74
2022/09/16 00:52:07;;;;;;;3.63;1.50;;;538.00;2406.40;;;;;;5140832;27;20022;-75
2022/09/16 00:54:36;;;;;;;7.82;1.80;;;537.90;2406.40;;;;;;5135546;27;20026;-74
2022/09/16 00:57:05;;;;;;;7.13;1.65;;;537.90;2406.40;;;;;;5151578;27;20068;-75
2022/09/16 00:59:36;;;;;;;5.10;1.75;;;538.00;2406.40;;;;;;5132324;27;20023;-74
2022/09/16 01:02:14;;;;;;;4.30;1.75;;;538.00;2406.40;;;;;;5132960;27;20075;-75
2022/09/16 01:04:52;;;;;;;4.03;1.45;;;538.00;2406.40;;;;;;5131359;27;20027;-75
2022/09/16 01:07:31;;;;;;;2.58;1.70;;;538.00;2406.40;;;;;;5132340;27;20098;-75
2022/09/16 01:09:58;;;;;;;4.70;1.70;;;538.10;2406.40;;;;;;5132000;27;20049;-75
2022/09/16 01:12:27;;;;;;;5.28;1.63;;;538.10;2406.40;;;;;;5132813;27;20472;-74
2022/09/16 01:14:52;;;;;;;3.22;1.58;;;538.10;2406.40;;;;;;5131926;27;20031;-76
2022/09/16 01:17:33;;;;;;;6.18;1.85;;;538.00;2406.40;;;;;;5136047;27;20038;-76
2022/09/16 01:20:38;;;;;;;1.75;1.10;;;537.80;2406.40;;;;;;5129589;27;20043;-75
2022/09/16 01:23:12;;;;;;;2.97;1.55;;;537.70;2406.40;;;;;;5132495;27;20036;-75
2022/09/16 01:25:52;;;;;;;3.72;1.60;;;537.60;2406.40;;;;;;5129224;27;20026;-76
2022/09/16 01:28:55;;;;;;;5.07;1.90;;;537.60;2406.40;;;;;;5129383;27;20034;-76
2022/09/16 01:31:33;;;;;;;6.13;1.98;;;537.70;2406.40;;;;;;5116614;27;20487;-76
2022/09/16 01:34:16;;;;;;;4.63;1.42;;;537.80;2406.40;;;;;;5128602;27;20027;-76
2022/09/16 01:36:56;;;;;;;6.82;1.27;;;537.90;2406.40;;;;;;5139596;27;20038;-76
2022/09/16 01:39:33;;;;;;;6.72;2.05;;;538.00;2406.40;;;;;;5137190;27;20019;-76
2022/09/16 01:42:08;;;;;;;3.50;1.60;;;538.00;2406.40;;;;;;5133550;27;20385;-75
2022/09/16 01:44:58;;;;;;;4.03;1.45;;;538.00;2406.40;;;;;;5138681;27;20022;-76
2022/09/16 01:47:24;;;;;;;6.40;1.77;;;537.90;2406.40;;;;;;5136589;27;20031;-76
2022/09/16 01:49:58;;;;;;;4.00;1.80;;;537.80;2406.40;;;;;;5120395;27;20042;-76
2022/09/16 01:52:48;;;;;;;4.22;1.30;;;537.80;2406.40;;;;;;5149515;27;20023;-76
2022/09/16 01:55:28;;;;;;;6.68;1.20;;;537.80;2406.40;;;;;;5135439;27;20373;-76
2022/09/16 01:58:04;;;;;;;5.55;1.63;;;537.80;2406.40;;;;;;5135974;27;20380;-76
2022/09/16 02:00:31;;;;;;;;;;;537.90;2406.40;;;;;;5134713;27;20073;-76
2022/09/16 02:03:15;;;;;;;5.10;1.30;;;538.00;2406.40;;;;;;5138689;27;19946;-76
2022/09/16 02:05:52;;;;;;;4.15;1.50;;;537.80;2406.40;;;;;;5135810;27;20030;-76
2022/09/16 02:08:39;;;;;;;5.97;1.02;;;537.90;2406.40;;;;;;5138166;27;20046;-76
2022/09/16 02:11:09;;;;;;;3.95;1.48;;;537.90;2406.40;;;;;;5134377;27;20106;-76
2022/09/16 02:13:43;;;;;;;6.43;1.40;;;537.80;2406.40;;;;;;5138404;27;20023;-76
2022/09/16 02:16:19;;;;;;;6.93;1.63;;;537.90;2406.40;;;;;;5135461;27;20018;-76
2022/09/16 02:18:49;;;;;;;;;;;537.80;2406.40;;;;;;5115402;27;20476;-76
2022/09/16 02:21:16;;;;;;;7.80;1.38;;;537.80;2406.40;;;;;;5135150;27;19956;-76
2022/09/16 02:23:50;;;;;;;6.05;1.50;;;537.70;2406.40;;;;;;5132645;27;20380;-76
2022/09/16 02:26:20;;;;;;;5.72;1.20;;;537.80;2406.40;;;;;;5138285;27;20465;-76
2022/09/16 02:28:48;;;;;;;5.60;1.35;;;537.90;2406.40;;;;;;5137383;27;20031;-76
2022/09/16 02:31:15;;;;;;;5.43;1.70;;;537.80;2406.40;;;;;;5138083;27;20027;-76
2022/09/16 02:33:44;;;;;;;4.97;1.73;;;537.80;2406.40;;;;;;5135105;27;20015;-76
2022/09/16 02:36:14;;;;;;;6.05;1.67;;;538.00;2406.40;;;;;;5151262;27;20053;-76
2022/09/16 02:38:44;;;;;;;4.78;1.60;;;537.80;2406.40;;;;;;5147384;27;20031;-75
2022/09/16 02:41:13;;;;;;;3.17;1.70;;;537.60;2406.40;;;;;;5136502;27;20484;-77
2022/09/16 02:43:41;;;;;;;7.40;1.30;;;537.70;2406.40;;;;;;5134440;27;20023;-76
2022/09/16 02:46:15;;;;;;;6.03;2.10;;;537.80;2406.40;;;;;;5137378;27;20018;-76
2022/09/16 02:48:44;;;;;;;7.10;1.77;;;537.70;2406.40;;;;;;5112763;27;20023;-76
2022/09/16 02:51:22;;;;;;;4.40;1.65;;;537.70;2406.40;;;;;;5137545;27;20022;-76
2022/09/16 02:54:14;;;;;;;3.95;1.88;;;537.80;2406.40;;;;;;5132540;27;20015;-77
2022/09/16 02:56:41;;;;;;;4.88;1.60;;;537.90;2406.40;;;;;;5134738;27;20022;-76
2022/09/16 02:59:10;;;;;;;3.08;1.70;;;537.80;2406.40;;;;;;5137555;27;20011;-76
2022/09/16 03:01:41;;;;;;;3.15;1.60;;;537.80;2406.40;;;;;;5140109;27;20065;-76
2022/09/16 03:04:13;;;;;;;7.72;1.80;;;537.60;2406.40;;;;;;5135160;27;20015;-76
2022/09/16 03:06:39;;;;;;;5.03;1.92;;;512.90;2380.80;;;;;;5150439;27;20015;-77
2022/09/16 03:09:09;;;;;;;5.25;2.13;;;512.80;2380.80;;;;;;5131966;27;20024;-76
2022/09/16 03:12:00;;;;;;;8.50;2.15;;;512.80;2380.80;;;;;;5136099;27;20027;-76
2022/09/16 03:14:25;;;;;;;8.98;2.25;;;512.60;2380.80;;;;;;5137305;27;20023;-76
2022/09/16 03:17:18;;;;;;;4.53;2.00;;;512.50;2380.80;;;;;;5134517;27;20384;-75
2022/09/16 03:20:10;;;;;;;4.10;1.70;;;512.40;2380.80;;;;;;5113607;27;20489;-76
2022/09/16 03:23:01;;;;;;;5.35;2.10;;;512.40;2380.80;;;;;;5148973;27;20350;-76
2022/09/16 03:25:52;;;;;;;10.60;1.90;;;512.30;2380.80;;;;;;5131411;27;20023;-76
2022/09/16 03:28:23;;;;;;;3.08;1.80;;;512.30;2380.80;;;;;;5138785;27;20015;-76
2022/09/16 03:30:58;;;;;;;4.88;2.08;;;512.20;2380.80;;;;;;5131755;27;20015;-76
2022/09/16 03:34:02;;;;;;;4.45;1.98;;;512.10;2380.80;;;;;;5133743;27;20047;-76
2022/09/16 03:36:33;;;;;;;5.35;1.52;;;512.10;2380.80;;;;;;5134043;27;20255;-76
2022/09/16 03:39:01;;;;;;;3.58;1.83;;;512.10;2380.80;;;;;;5134219;27;20076;-75
2022/09/16 03:41:30;;;;;;;3.55;1.70;;;512.10;2380.80;;;;;;5131710;27;20038;-76
2022/09/16 03:43:57;;;;;;;4.55;1.88;;;512.10;2380.80;;;;;;5138358;27;20090;-75
2022/09/16 03:46:25;;;;;;;5.47;2.30;;;512.00;2380.80;;;;;;5133530;27;20468;-76
2022/09/16 03:48:51;;;;;;;6.65;2.45;;;512.10;2380.80;;;;;;5115153;27;20414;-75
2022/09/16 03:51:17;;;;;;;3.97;1.95;;;512.20;2380.80;;;;;;5133739;27;20094;-76
2022/09/16 03:53:43;;;;;;;3.78;1.70;;;512.30;2380.80;;;;;;5136254;27;20015;-76
2022/09/16 03:56:09;;;;;;;6.30;2.08;;;512.20;2380.80;;;;;;5133632;27;20026;-76
2022/09/16 03:58:34;;;;;;;6.45;2.03;;;512.20;2380.80;;;;;;5136424;27;20880;-76
2022/09/16 04:01:00;;;;;;;7.32;2.50;;;512.10;2380.80;;;;;;5133350;27;20019;-76
2022/09/16 04:03:26;;;;;;;5.53;1.92;;;512.00;2380.80;;;;;;5115289;27;20465;-76
2022/09/16 04:05:53;;;;;;;6.55;1.73;;;512.10;2380.80;;;;;;5117305;27;20068;-76
2022/09/16 04:08:19;;;;;;;8.80;2.55;;;512.10;2380.80;;;;;;5117669;27;20027;-76
2022/09/16 04:11:00;;;;;;;3.72;1.80;;;512.20;2380.80;;;;;;5119327;27;20043;-75
2022/09/16 04:13:28;;;;;;;7.00;2.60;;;512.20;2380.80;;;;;;5136132;27;20094;-76
2022/09/16 04:15:54;;;;;;;13.50;2.53;;;512.10;2380.80;;;;;;5134746;27;20030;-76
2022/09/16 04:18:20;;;;;;;6.35;2.30;;;512.20;2380.80;;;;;;5136762;27;20023;-76
2022/09/16 04:20:46;;;;;;;3.90;2.58;;;512.10;2380.80;;;;;;5133061;27;20561;-77
2022/09/16 04:23:11;;;;;;;13.90;2.38;;;512.20;2380.80;;;;;;5115496;27;20072;-77
2022/09/16 04:25:39;;;;;;;17.77;2.65;;;512.00;2380.80;;;;;;5121659;27;20014;-77
2022/09/16 04:28:05;;;;;;;7.47;3.05;;;512.00;2380.80;;;;;;5133068;27;20102;-77
2022/09/16 04:30:31;;;;;;;9.68;2.85;;;487.30;2380.80;;;;;;5114318;27;20023;-77
2022/09/16 04:32:57;;;;;;;9.23;3.13;;;512.10;2380.80;;;;;;5141440;27;20018;-77
2022/09/16 04:35:24;;;;;;;7.20;2.65;;;512.00;2380.80;;;;;;5138658;27;20098;-78
2022/09/16 04:37:54;;;;;;;8.85;2.30;;;512.10;2380.80;;;;;;5133938;27;20016;-78
2022/09/16 04:40:20;;;;;;;3.40;1.70;;;512.10;2380.80;;;;;;5124770;27;20038;-81
2022/09/16 04:42:49;;;;;;;7.20;3.05;;;512.00;2380.80;;;;;;5126555;27;20489;-81
2022/09/16 04:45:15;;;;;;;5.90;3.08;;;487.30;2380.80;;;;;;5120846;27;20030;-83
2022/09/16 04:47:41;;;;;;;8.13;2.63;;;487.30;2380.80;;;;;;5136403;27;20030;-83
2022/09/16 04:50:07;;;;;;;7.90;2.50;;;487.30;2380.80;;;;;;5132276;27;20023;-80
2022/09/16 04:52:33;;;;;;;4.97;2.83;;;487.30;2380.80;;;;;;5123352;27;20027;-79
2022/09/16 04:54:59;;;;;;;7.93;3.70;;;487.30;2380.80;;;;;;5120132;27;20019;-80
2022/09/16 04:57:24;;;;;;;8.38;3.13;;;512.00;2380.80;;;;;;5123175;27;20023;-83
2022/09/16 04:59:50;;;;;;;8.07;2.85;;;512.10;2380.80;;;;;;5126688;27;20464;-80
2022/09/16 05:02:16;;;;;;;12.30;2.20;;;512.20;2380.80;;;;;;5125195;27;20113;-80
2022/09/16 05:04:41;;;;;;;7.55;3.10;;;512.40;2380.80;;;;;;5159892;27;20465;-79
2022/09/16 05:07:07;;;;;;;9.43;2.50;;;512.50;2380.80;;;;;;5125877;27;20042;-79
2022/09/16 05:09:34;;;;;;;6.25;2.33;;;512.70;2380.80;;;;;;5123125;27;20043;-78
2022/09/16 05:12:00;;;;;;;7.32;2.15;;;512.70;2380.80;;;;;;5158549;27;20020;-79
2022/09/16 05:14:26;;;;;;;6.05;2.10;;;512.70;2380.80;;;;;;5122327;27;20035;-78
2022/09/16 05:16:52;;;;;;;5.40;2.17;;;512.80;2380.80;;;;;;5132453;27;20053;-78
2022/09/16 05:19:18;;;;;;;4.22;2.30;;;512.90;2380.80;;;;;;5148155;27;20019;-79
2022/09/16 05:21:44;;;;;;;7.22;2.05;;;512.90;2380.80;;;;;;5116933;28;20031;-78
2022/09/16 05:24:12;;;;;;;5.18;2.20;;;512.90;2380.80;;;;;;5114800;27;20049;-79
2022/09/16 05:26:41;;;;;;;9.40;3.30;;;512.90;2380.80;;;;;;5114556;28;20045;-79
2022/09/16 05:29:14;;;;;;;6.07;2.13;;;537.60;2406.40;;;;;;5114589;27;20027;-78
2022/09/16 05:31:42;;;;;;;3.50;2.20;;;537.70;2406.40;;;;;;5138169;27;20494;-79
2022/09/16 05:34:13;;;;;;;4.30;1.92;;;537.80;2406.40;;;;;;5119053;27;20011;-79
2022/09/16 05:36:42;;;;;;;9.30;2.60;;;537.90;2406.40;;;;;;5134809;27;20034;-77
2022/09/16 05:39:11;;;;;;;6.20;2.35;;;538.00;2406.40;;;;;;5136192;27;20473;-77
2022/09/16 05:41:37;;;;;;;3.30;2.05;;;538.00;2406.40;;;;;;5114656;27;20035;-78
2022/09/16 05:44:05;;;;;;;6.50;2.10;;;538.00;2406.40;;;;;;5134652;27;20023;-78
2022/09/16 05:46:31;;;;;;;6.40;1.98;;;538.20;2406.40;;;;;;5118118;27;20855;-78
2022/09/16 05:48:57;;;;;;;6.88;2.20;;;538.10;2406.40;;;;;;5136126;27;20026;-77
2022/09/16 05:51:24;;;;;;;4.63;1.92;;;538.10;2406.40;;;;;;5114243;27;20110;-77
2022/09/16 05:53:51;;;;;;;5.57;2.22;;;538.20;2406.40;;;;;;5113525;27;20051;-78
2022/09/16 05:56:20;;;;;;;3.90;1.83;;;538.30;2406.40;;;;;;5119270;27;20050;-78
2022/09/16 05:58:46;;;;;;;5.82;1.83;;;538.30;2406.40;;;;;;5121724;27;20508;-78
2022/09/16 06:01:17;;;;;;;3.20;1.83;;;538.20;2406.40;;;;;;5118839;27;20126;-77
2022/09/16 06:03:45;;;;;;;3.25;1.80;;;538.20;2406.40;;;;;;5132071;27;20019;-78
2022/09/16 06:06:17;;;;;;;4.93;2.00;;;538.30;2406.40;;;;;;5127632;27;20016;-79
2022/09/16 06:08:43;;;;;;;4.38;1.73;;;538.20;2406.40;;;;;;5108153;27;20423;-79
2022/09/16 06:11:10;;;;;;;4.47;1.55;;;538.30;2406.40;;;;;;5120206;27;20031;-78
2022/09/16 06:13:37;;;;;;;7.63;2.17;;;538.20;2406.40;;;;;;5116279;27;20042;-78
2022/09/16 06:16:04;;;;;;;3.83;1.60;;;538.20;2406.40;;;;;;5131581;27;20038;-79
2022/09/16 06:18:31;;;;;;;4.07;2.22;;;538.20;2406.40;;;;;;5118192;27;20035;-78
2022/09/16 06:21:00;;;;;;;2.90;1.70;;;538.20;2406.40;;;;;;5137791;27;20035;-78
2022/09/16 06:23:26;;;;;;;3.92;1.90;;;538.20;2406.40;;;;;;5135079;27;20499;-76
2022/09/16 06:26:03;;;;;;;5.30;1.80;;;538.20;2406.40;;;;;;5135914;27;20035;-78
2022/09/16 06:28:29;;;;;;;3.70;1.42;;;538.30;2406.40;;;;;;5156136;27;20087;-78
2022/09/16 06:31:20;;;;;;;2.65;1.33;;;538.30;2406.40;;;;;;5145580;27;20023;-77
2022/09/16 06:33:49;;;;;;;3.65;1.60;;;538.30;2406.40;;;;;;5121731;27;20107;-77
2022/09/16 06:36:22;;;;;;;2.83;1.30;;;538.30;2406.40;;;;;;5117307;27;20030;-77
2022/09/16 06:38:50;;;;;;;7.35;1.83;;;538.30;2406.40;;;;;;5135713;27;20016;-78
2022/09/16 06:41:17;;;;;;;5.55;1.90;;;538.30;2406.40;;;;;;5117265;27;20130;-76
2022/09/16 06:43:44;;;;;;;8.45;2.13;;;538.30;2406.40;;;;;;5116211;27;20134;-77
2022/09/16 06:46:14;;;;;;;6.93;2.70;;;538.20;2406.40;;;;;;5135494;27;20075;-76
2022/09/16 06:48:41;;;;;;;5.97;2.10;;;538.20;2406.40;;;;;;5116778;27;20035;-76
2022/09/16 06:51:10;;;;;;;6.55;2.00;;;538.30;2406.40;;;;;;5135626;27;20080;-79
2022/09/16 06:53:36;;;;;;;3.78;1.48;;;538.50;2406.40;;;;;;5135547;27;20019;-78
2022/09/16 06:56:09;;;;;;;3.35;1.45;;;538.50;2406.40;;;;;;5152234;27;20027;-76
2022/09/16 06:58:36;;;;;;;7.80;1.88;;;563.20;2432.00;;;;;;5129675;27;20023;-78
2022/09/16 07:01:12;;;;;;;4.30;1.48;;;538.50;2406.40;;;;;;5116524;27;20027;-77
2022/09/16 07:03:40;;;;;;;4.97;1.45;;;538.50;2406.40;;;;;;5103725;27;20019;-80
2022/09/16 07:06:07;;;;;;;4.55;2.03;;;538.50;2406.40;;;;;;5118988;27;20383;-78
2022/09/16 07:08:34;;;;;;;3.30;1.42;;;538.50;2406.40;;;;;;5124226;27;20093;-77
2022/09/16 07:11:06;;;;;;;2.70;1.30;;;538.40;2406.40;;;;;;5136076;27;20039;-78
2022/09/16 07:13:32;;;;;;;7.95;1.50;;;538.30;2406.40;;;;;;5135272;27;20029;-77
2022/09/16 07:16:00;;;;;;;4.28;1.45;;;538.20;2406.40;;;;;;5150918;27;20114;-77
2022/09/16 07:18:26;;;;;;;2.47;1.65;;;538.30;2406.40;;;;;;5135004;27;20381;-76
2022/09/16 07:20:59;;;;;;;5.93;1.25;;;538.50;2406.40;;;;;;5134398;27;20027;-77
2022/09/16 07:23:24;;;;;;;7.30;1.90;;;563.20;2432.00;;;;;;5150814;27;20023;-76
2022/09/16 07:26:03;;;;;;;4.70;1.70;;;538.50;2406.40;;;;;;5142556;27;20476;-78
2022/09/16 07:28:30;;;;;;;4.38;1.48;;;538.50;2406.40;;;;;;5115145;27;20035;-77
2022/09/16 07:30:58;;;;;;;3.85;1.67;;;538.50;2406.40;;;;;;5136409;27;20098;-77
2022/09/16 07:33:24;;;;;;;3.15;1.45;;;538.50;2406.40;;;;;;5121234;27;20094;-77
2022/09/16 07:35:50;;;;;;;5.43;1.75;;;538.30;2406.40;;;;;;5133953;27;20460;-77
2022/09/16 07:38:15;;;;;;;4.35;1.40;;;538.20;2406.40;;;;;;5134105;27;20027;-78
2022/09/16 07:40:41;;;;;;;4.82;1.92;;;538.20;2406.40;;;;;;5133825;27;20027;-76
2022/09/16 07:43:07;;;;;;;4.22;1.77;;;538.20;2406.40;;;;;;5136603;27;20516;-76
2022/09/16 07:45:33;;;;;;;2.10;1.50;;;538.30;2406.40;;;;;;5120896;27;20038;-76
2022/09/16 07:47:58;;;;;;;3.22;2.00;;;538.50;2406.40;;;;;;5136511;27;20407;-75
2022/09/16 07:50:24;;;;;;;4.05;1.98;;;538.50;2406.40;;;;;;5136307;27;20034;-76
2022/09/16 07:52:54;;;;;;;3.53;2.05;;;563.30;2432.00;;;;;;5134528;27;20016;-76
2022/09/16 07:55:20;;;;;;;4.18;2.00;;;563.20;2432.00;;;;;;5125954;27;20026;-77
2022/09/16 07:57:46;;;;;;;4.90;1.88;;;563.20;2432.00;;;;;;5119214;27;20030;-79
2022/09/16 08:00:12;;;;;;;2.25;1.30;;;563.20;2432.00;;;;;;5115789;27;20095;-78
2022/09/16 08:02:38;;;;;;;3.85;1.40;;;563.20;2432.00;;;;;;5114955;27;20114;-77
2022/09/16 08:05:04;;;;;;;3.78;1.30;;;563.20;2432.00;;;;;;5134339;27;20590;-78
2022/09/16 08:07:30;;;;;;;3.97;1.65;;;563.20;2432.00;;;;;;5114945;27;20027;-78
2022/09/16 08:09:55;;;;;;;2.95;1.33;;;563.20;2432.00;;;;;;5133732;27;20045;-76
2022/09/16 08:12:21;;;;;;;3.67;1.50;;;563.20;2432.00;;;;;;5129874;27;20045;-77
2022/09/16 08:14:47;;;;;;;2.33;1.20;;;563.30;2432.00;;;;;;5115484;27;20027;-78
2022/09/16 08:17:12;;;;;;;3.90;1.48;;;563.30;2432.00;;;;;;5133581;27;20058;-78
2022/09/16 08:19:40;;;;;;;4.15;1.63;;;563.40;2432.00;;;;;;5149626;27;20065;-77
2022/09/16 08:22:05;;;;;;;3.70;1.55;;;563.40;2432.00;;;;;;5115446;27;20039;-78
2022/09/16 08:24:31;;;;;;;4.65;1.90;;;563.40;2432.00;;;;;;5115378;27;20019;-78
2022/09/16 08:26:57;;;;;;;5.65;1.98;;;563.20;2432.00;;;;;;5115203;27;20023;-78
2022/09/16 08:29:24;;;;;;;6.32;3.30;;;563.20;2432.00;;;;;;5114869;27;20376;-78
2022/09/16 08:31:50;;;;;;;10.88;4.43;;;563.30;2432.00;;;;;;5133684;27;20049;-76
2022/09/16 08:34:16;;;;;;;13.60;6.68;;;563.40;2432.00;;;;;;5115096;27;20050;-74
2022/09/16 08:36:43;;;;;;;6.65;3.53;;;563.40;2432.00;;;;;;5133611;27;20027;-76
2022/09/16 08:39:10;;;;;;;5.22;2.28;;;563.60;2432.00;;;;;;5114280;27;20031;-78
2022/09/16 08:41:50;;;;;;;4.63;1.80;;;563.60;2432.00;;;;;;5114430;27;20070;-79
2022/09/16 08:44:35;;;;;;;5.13;2.55;;;563.70;2432.00;;;;;;5133542;27;20012;-79
2022/09/16 08:47:27;;;;;;;5.07;2.17;;;563.70;2432.00;;;;;;5133250;27;20023;-79
2022/09/16 08:49:54;;;;;;;3.97;2.35;;;563.90;2432.00;;;;;;5114260;27;20038;-79
2022/09/16 08:52:31;;;;;;;6.45;2.63;;;563.80;2432.00;;;;;;5133673;27;20027;-80
2022/09/16 08:55:22;;;;;;;8.50;3.67;;;563.70;2432.00;;;;;;5115842;27;20054;-79
2022/09/16 08:58:04;;;;;;;11.20;3.33;;;563.70;2432.00;;;;;;5133495;27;20080;-80
2022/09/16 09:00:31;;;;;;;4.25;2.90;;;563.70;2432.00;;;;;;5133631;27;20088;-80
2022/09/16 09:02:59;;;;;;;6.95;4.47;;;563.80;2432.00;;;;;;5138447;27;20023;-84
2022/09/16 09:05:35;;;;;;;5.75;4.25;;;563.90;2432.00;;;;;;5120355;27;20079;-79
2022/09/16 09:08:13;;;;;;;7.97;4.60;;;563.90;2432.00;;;;;;5123189;27;20072;-76
2022/09/16 09:10:56;;;;;;;6.05;4.95;;;563.90;2432.00;;;;;;5137406;27;20450;-81
2022/09/16 09:13:37;;;;;;;8.20;5.03;;;563.90;2432.00;;;;;;5121946;27;20031;-80
2022/09/16 09:16:13;;;;;;;8.75;4.05;;;563.90;2432.00;;;;;;5129224;27;20079;-78
2022/09/16 09:18:52;;;;;;;7.28;3.88;;;564.00;2432.00;;;;;;5124656;27;20037;-79
2022/09/16 09:21:32;;;;;;;7.28;4.50;;;564.00;2432.00;;;;;;5116872;28;20027;-79
2022/09/16 09:24:29;;;;;;;6.38;4.47;;;564.00;2432.00;;;;;;5114511;28;20016;-79
2022/09/16 09:27:35;;;;;;;7.43;5.25;;;563.90;2432.00;;;;;;5113909;28;20023;-78
2022/09/16 09:30:21;;;;;;;12.20;5.38;;;563.90;2432.00;;;;;;5086510;28;20044;-78
2022/09/16 09:32:57;;;;;;;8.25;5.57;;;563.90;2432.00;;;;;;5086624;28;20543;-78
2022/09/16 09:35:45;;;;;;;;;;;564.00;2432.00;;;;;;5071586;28;20142;-84
2022/09/16 09:38:33;;;;;;;9.95;6.88;;;563.90;2432.00;;;;;;5072421;28;20002;-78
2022/09/16 09:41:09;;;;;;;9.43;5.20;;;564.00;2432.00;;;;;;5072772;28;20135;-78
2022/09/16 09:43:48;;;;;;;11.45;5.68;;;564.00;2432.00;;;;;;5088716;28;20076;-78
2022/09/16 09:46:32;;;;;;;7.95;4.72;;;564.00;2432.00;;;;;;5074337;28;20047;-79
2022/09/16 09:49:18;;;;;;;9.70;5.22;;;564.00;2432.00;;;;;;5079424;28;20028;-78
2022/09/16 09:52:22;;;;;;;7.25;5.13;;;563.80;2432.00;;;;;;5081500;28;20112;-79
2022/09/16 09:54:50;;;;;;;7.35;5.38;;;563.70;2432.00;;;;;;5068662;28;20033;-80
2022/09/16 09:57:39;;;;;;;13.05;8.77;;;563.70;2432.00;;;;;;5063380;28;20036;-79
2022/09/16 10:00:16;;;;;;;16.63;10.70;;;563.70;2432.00;;;;;;5066726;28;20031;-79
2022/09/16 10:02:44;;;;;;;14.32;9.55;;;563.70;2432.00;;;;;;5067755;28;20024;-76
2022/09/16 10:05:25;;;;;;;7.75;5.88;;;563.70;2432.00;;;;;;5075572;28;20039;-79
2022/09/16 10:07:54;;;;;;;7.10;5.70;;;563.80;2432.00;;;;;;5114901;27;20032;-79
2022/09/16 10:10:22;;;;;;;8.77;4.60;;;563.80;2432.00;;;;;;5087942;28;20043;-78
2022/09/16 10:12:49;;;;;;;7.85;4.82;;;563.70;2432.00;;;;;;5084042;28;20122;-78
2022/09/16 10:15:19;;;;;;;12.55;5.07;;;564.00;2432.00;;;;;;5085652;28;20026;-79
2022/09/16 10:17:48;;;;;;;8.55;5.60;;;563.90;2432.00;;;;;;5098516;28;20035;-77
2022/09/16 10:20:26;;;;;;;6.78;4.88;;;564.00;2432.00;;;;;;5083794;28;20028;-77
2022/09/16 10:23:00;;;;;;;6.63;5.35;;;588.80;2432.00;;;;;;5089651;28;20481;-78
2022/09/16 10:25:28;;;;;;;9.70;6.38;;;589.30;2432.00;;;;;;5076222;28;20040;-80
2022/09/16 10:28:02;;;;;;;11.90;7.43;;;589.20;2432.00;;;;;;5075767;28;20028;-77
2022/09/16 10:30:31;;;;;;;10.55;8.40;;;589.20;2432.00;;;;;;5118158;27;20039;-79
2022/09/16 10:33:16;;;;;;;11.02;8.07;;;589.10;2432.00;;;;;;5135254;27;20026;-78
2022/09/16 10:35:56;;;;;;;11.68;7.22;;;589.10;2432.00;;;;;;5119208;27;20031;-78
2022/09/16 10:38:25;;;;;;;7.85;6.70;;;589.00;2432.00;;;;;;5125022;27;20499;-79
2022/09/16 10:41:00;;;;;;;9.90;7.40;;;588.90;2432.00;;;;;;5129093;27;20079;-79
2022/09/16 10:43:29;;;;;;;9.98;7.10;;;588.80;2432.00;;;;;;5145340;27;20024;-79
2022/09/16 10:45:55;;;;;;;9.13;6.63;;;564.10;2432.00;;;;;;5117377;27;20026;-79
2022/09/16 10:48:24;;;;;;;13.55;8.35;;;564.10;2432.00;;;;;;5117161;27;20031;-77
2022/09/16 10:50:58;;;;;;;13.85;7.30;;;564.00;2432.00;;;;;;5116613;27;20072;-78
2022/09/16 10:53:32;;;;;;;14.20;9.68;;;563.90;2432.00;;;;;;5115387;27;20365;-78
2022/09/16 10:56:01;;;;;;;7.63;5.55;;;563.90;2432.00;;;;;;5135464;27;20098;-79
2022/09/16 10:58:27;;;;;;;7.03;5.00;;;563.90;2432.00;;;;;;5117132;27;20030;-82
2022/09/16 11:01:14;;;;;;;8.48;4.25;;;563.90;2432.00;;;;;;5135231;27;20035;-78
2022/09/16 11:04:12;;;;;;;;;;;564.00;2432.00;;;;;;5117134;27;20023;-78
2022/09/16 11:06:46;;;;;;;6.65;3.95;;;564.10;2432.00;;;;;;5054045;28;19953;-77
2022/09/16 11:09:12;;;;;;;6.60;3.35;;;588.80;2432.00;;;;;;5054491;28;20433;-78
2022/09/16 11:11:56;;;;;;;5.90;3.80;;;588.90;2432.00;;;;;;5071778;28;20167;-77
2022/09/16 11:14:22;;;;;;;4.50;2.13;;;588.80;2432.00;;;;;;5041657;28;20056;-78
2022/09/16 11:17:10;;;;;;;5.13;2.45;;;588.80;2432.00;;;;;;5071832;28;20119;-77
2022/09/16 11:20:06;;;;;;;4.10;2.75;;;564.10;2432.00;;;;;;5054829;28;20119;-78
2022/09/16 11:22:58;;;;;;;5.27;2.70;;;564.10;2432.00;;;;;;5071409;28;20136;-78
2022/09/16 11:25:40;;;;;;;3.58;2.33;;;588.80;2432.00;;;;;;5071760;28;20257;-78
2022/09/16 11:28:13;;;;;;;4.07;1.83;;;588.90;2432.00;;;;;;5054464;28;20036;-78
2022/09/16 11:31:10;;;;;;;5.63;2.15;;;589.10;2432.00;;;;;;5054223;28;20436;-78
2022/09/16 11:33:47;;;;;;;4.63;2.55;;;589.30;2432.00;;;;;;5011545;28;20042;-77
2022/09/16 11:37:02;;;;;;;3.95;2.97;;;589.50;2432.00;;;;;;5011660;28;20038;-78
2022/09/16 11:39:37;;;;;;;4.93;3.40;;;589.60;2432.00;;;;;;4972565;28;20035;-78
2022/09/16 11:42:20;;;;;;;4.63;3.45;;;589.50;2432.00;;;;;;4978708;28;20061;-78
2022/09/16 11:44:49;;;;;;;4.88;3.20;;;589.60;2432.00;;;;;;4991615;28;20046;-78
2022/09/16 11:47:32;;;;;;;5.93;3.10;;;589.70;2432.00;;;;;;4992080;28;20431;-78
2022/09/16 11:50:35;;;;;;;5.05;3.10;;;614.40;2432.00;;;;;;4992031;28;20081;-78
2022/09/16 11:53:35;;;;;;;4.78;2.55;;;614.40;2432.00;;;;;;5007740;28;20051;-79
2022/09/16 11:56:24;;;;;;;3.33;2.60;;;614.40;2432.00;;;;;;4972160;28;20037;-78
2022/09/16 11:58:55;;;;;;;4.75;2.30;;;614.40;2432.00;;;;;;4968417;28;20039;-78
2022/09/16 12:01:36;;;;;;;4.78;2.38;;;589.70;2432.00;;;;;;4970419;28;20039;-78
2022/09/16 12:04:13;;;;;;;3.03;2.05;;;589.60;2432.00;;;;;;4971920;28;20039;-78
2022/09/16 12:07:08;;;;;;;5.10;2.60;;;589.50;2432.00;;;;;;4955375;28;20038;-78
2022/09/16 12:09:52;;;;;;;3.08;2.10;;;589.50;2432.00;;;;;;4973079;28;20055;-78
2022/09/16 12:12:25;;;;;;;3.92;2.22;;;589.40;2432.00;;;;;;5022920;28;20026;-77
2022/09/16 12:14:57;;;;;;;6.50;2.95;;;589.40;2432.00;;;;;;5025781;28;20429;-78
2022/09/16 12:17:29;;;;;;;3.35;2.20;;;589.40;2432.00;;;;;;5069758;28;20024;-78
2022/09/16 12:20:06;;;;;;;6.00;2.67;;;589.30;2432.00;;;;;;5070696;28;20035;-77
2022/09/16 12:22:41;;;;;;;4.25;2.00;;;589.30;2432.00;;;;;;5034763;28;20045;-80
2022/09/16 12:25:12;;;;;;;3.83;2.22;;;589.30;2432.00;;;;;;5034265;28;20053;-80
2022/09/16 12:27:43;;;;;;;4.93;2.85;;;589.30;2432.00;;;;;;5047421;28;20032;-79
2022/09/16 12:30:22;;;;;;;4.43;2.63;;;589.20;2432.00;;;;;;5061421;28;20024;-79
2022/09/16 12:33:19;;;;;;;3.70;2.00;;;589.10;2432.00;;;;;;5096481;27;20023;-79
2022/09/16 12:36:09;;;;;;;4.25;2.60;;;589.10;2432.00;;;;;;5138264;27;20087;-79
2022/09/16 12:38:36;;;;;;;7.20;2.97;;;589.00;2432.00;;;;;;5120789;27;20037;-80
2022/09/16 12:41:04;;;;;;;3.80;2.50;;;589.00;2432.00;;;;;;5117967;27;20035;-79
2022/09/16 12:43:33;;;;;;;4.57;3.00;;;589.00;2432.00;;;;;;5115632;27;20814;-82
2022/09/16 12:46:20;;;;;;;5.05;2.95;;;589.00;2432.00;;;;;;5115669;27;20369;-82